createdAt,value
2022-08-09T00:00:11.457Z,15.41
2022-08-09T00:02:42.903Z,15.38
2022-08-09T00:06:18.225Z,15.38
2022-08-09T00:08:04.561Z,15.37
2022-08-09T00:10:38.742Z,15.38
2022-08-09T00:13:17.174Z,15.30
2022-08-09T00:15:59.362Z,15.30
2022-08-09T00:18:35.704Z,15.20
2022-08-09T00:21:08.605Z,15.19
2022-08-09T00:23:54.930Z,15.14
2022-08-09T00:26:30.030Z,15.13
2022-08-09T00:29:01.862Z,15.03
2022-08-09T00:31:57.010Z,15.05
2022-08-09T00:34:19.327Z,15.04
2022-08-09T00:36:48.041Z,14.98
2022-08-09T00:40:01.977Z,15.00
2022-08-09T00:44:14.578Z,14.93
2022-08-09T00:44:51.656Z,14.93
2022-08-09T00:47:21.512Z,14.93
2022-08-09T00:49:54.837Z,14.93
2022-08-09T00:52:30.010Z,14.87
2022-08-09T00:55:02.541Z,14.88
2022-08-09T00:57:34.511Z,14.77
2022-08-09T01:00:21.107Z,14.81
2022-08-09T01:02:54.676Z,14.75
2022-08-09T01:05:58.762Z,14.75
2022-08-09T01:09:06.683Z,14.72
2022-08-09T01:11:39.960Z,14.69
2022-08-09T01:14:48.079Z,14.64
2022-08-09T01:17:30.404Z,14.59
2022-08-09T01:20:12.556Z,14.61
2022-08-09T01:22:55.297Z,14.58
2022-08-09T01:25:37.494Z,14.48
2022-08-09T01:28:10.624Z,14.48
2022-08-09T01:30:51.876Z,14.49
2022-08-09T01:33:23.427Z,14.41
2022-08-09T01:36:10.162Z,14.45
2022-08-09T01:38:41.642Z,14.41
2022-08-09T01:41:26.000Z,14.40
2022-08-09T01:43:56.492Z,14.39
2022-08-09T01:46:24.336Z,14.38
2022-08-09T01:49:00.177Z,14.36
2022-08-09T01:51:42.849Z,14.33
2022-08-09T01:54:14.987Z,14.30
2022-08-09T01:56:47.171Z,14.29
2022-08-09T01:59:23.021Z,14.23
2022-08-09T02:01:59.366Z,14.27
2022-08-09T02:04:30.502Z,14.25
2022-08-09T02:08:34.855Z,14.23
2022-08-09T02:10:14.636Z,14.24
2022-08-09T02:12:43.967Z,14.21
2022-08-09T02:15:16.921Z,14.22
2022-08-09T02:18:01.102Z,14.19
2022-08-09T02:20:39.561Z,14.18
2022-08-09T02:23:26.925Z,14.16
2022-08-09T02:26:00.326Z,14.17
2022-08-09T02:28:35.151Z,14.14
2022-08-09T02:31:07.041Z,14.14
2022-08-09T02:34:06.350Z,14.13
2022-08-09T02:36:43.285Z,14.11
2022-08-09T02:39:33.265Z,14.12
2022-08-09T02:42:06.673Z,14.03
2022-08-09T02:44:38.594Z,14.01
2022-08-09T02:47:09.726Z,13.99
2022-08-09T02:49:41.894Z,13.98
2022-08-09T02:52:14.537Z,13.99
2022-08-09T02:54:54.071Z,13.93
2022-08-09T02:57:25.076Z,13.93
2022-08-09T03:00:21.179Z,13.87
2022-08-09T03:02:58.234Z,13.86
2022-08-09T03:05:28.922Z,13.84
2022-08-09T03:07:56.720Z,13.86
2022-08-09T03:10:27.140Z,13.86
2022-08-09T03:12:56.157Z,13.82
2022-08-09T03:16:04.277Z,13.83
2022-08-09T03:18:15.225Z,13.79
2022-08-09T03:20:59.802Z,13.84
2022-08-09T03:23:28.366Z,13.85
2022-08-09T03:26:03.430Z,13.73
2022-08-09T03:28:33.702Z,13.81
2022-08-09T03:31:04.455Z,13.81
2022-08-09T03:33:53.498Z,13.84
2022-08-09T03:36:27.579Z,13.82
2022-08-09T03:38:56.414Z,13.81
2022-08-09T03:41:30.325Z,13.82
2022-08-09T03:44:12.072Z,13.81
2022-08-09T03:46:39.782Z,13.81
2022-08-09T03:49:09.557Z,13.78
2022-08-09T03:51:55.661Z,13.77
2022-08-09T03:54:38.435Z,13.73
2022-08-09T03:57:18.390Z,13.74
2022-08-09T03:59:53.669Z,13.73
2022-08-09T04:02:26.201Z,13.74
2022-08-09T04:04:56.835Z,13.70
2022-08-09T04:07:47.858Z,13.66
2022-08-09T04:10:14.577Z,13.60
2022-08-09T04:12:49.760Z,13.54
2022-08-09T04:15:40.591Z,13.57
2022-08-09T04:18:07.275Z,13.55
2022-08-09T04:20:35.009Z,13.60
2022-08-09T04:23:02.582Z,13.58
2022-08-09T04:25:37.346Z,13.49
2022-08-09T04:28:05.142Z,13.54
2022-08-09T04:30:33.067Z,13.51
2022-08-09T04:33:01.768Z,13.53
2022-08-09T04:35:29.459Z,13.52
2022-08-09T04:38:03.720Z,13.56
2022-08-09T04:40:48.222Z,13.58
2022-08-09T04:43:25.343Z,13.55
2022-08-09T04:45:54.398Z,13.48
2022-08-09T04:48:23.865Z,13.49
2022-08-09T04:51:00.853Z,13.47
2022-08-09T04:53:29.452Z,13.52
2022-08-09T04:55:59.811Z,13.53
2022-08-09T04:58:32.780Z,13.54
2022-08-09T05:01:02.484Z,13.52
2022-08-09T05:03:43.346Z,13.59
2022-08-09T05:06:22.133Z,13.59
2022-08-09T05:09:00.441Z,13.58
2022-08-09T05:11:30.656Z,13.63
2022-08-09T05:14:00.451Z,13.66
2022-08-09T05:16:31.495Z,13.75
2022-08-09T05:19:00.402Z,13.75
2022-08-09T05:21:36.635Z,13.81
2022-08-09T05:24:14.443Z,13.88
2022-08-09T05:26:46.050Z,13.85
2022-08-09T05:29:21.995Z,13.97
2022-08-09T05:31:57.100Z,14.07
2022-08-09T05:34:31.012Z,14.16
2022-08-09T05:37:05.324Z,14.23
2022-08-09T05:39:42.559Z,14.36
2022-08-09T05:42:20.749Z,14.38
2022-08-09T05:44:52.979Z,14.38
2022-08-09T05:47:25.122Z,14.45
2022-08-09T05:50:31.858Z,14.54
2022-08-09T05:52:53.611Z,14.64
2022-08-09T05:55:24.007Z,14.76
2022-08-09T05:57:56.818Z,14.82
2022-08-09T06:00:31.047Z,14.88
2022-08-09T06:03:03.316Z,14.98
2022-08-09T06:05:57.272Z,15.01
2022-08-09T06:08:24.914Z,15.11
2022-08-09T06:10:56.960Z,15.37
2022-08-09T06:13:28.551Z,15.33
2022-08-09T06:16:01.704Z,15.54
2022-08-09T06:18:33.538Z,15.66
2022-08-09T06:21:02.216Z,15.70
2022-08-09T06:23:55.376Z,15.86
2022-08-09T06:26:22.714Z,15.97
2022-08-09T06:29:00.148Z,16.08
2022-08-09T06:31:31.590Z,16.17
2022-08-09T06:34:07.787Z,16.25
2022-08-09T06:36:37.276Z,16.43
2022-08-09T06:39:12.405Z,16.67
2022-08-09T06:42:08.742Z,16.78
2022-08-09T06:44:28.150Z,16.90
2022-08-09T06:46:55.921Z,17.09
2022-08-09T06:49:29.227Z,17.05
2022-08-09T06:52:12.336Z,17.27
2022-08-09T06:54:43.745Z,17.30
2022-08-09T06:57:11.945Z,17.23
2022-08-09T07:00:55.529Z,17.40
2022-08-09T07:02:31.005Z,17.42
2022-08-09T07:05:00.101Z,17.51
2022-08-09T07:08:00.201Z,17.65
2022-08-09T07:10:24.034Z,17.70
2022-08-09T07:12:58.351Z,17.63
2022-08-09T07:16:36.747Z,17.84
2022-08-09T07:18:15.003Z,17.73
2022-08-09T07:20:44.442Z,18.00
2022-08-09T07:23:18.104Z,18.04
2022-08-09T07:25:47.781Z,18.11
2022-08-09T07:28:26.207Z,18.16
2022-08-09T07:30:56.294Z,18.08
2022-08-09T07:33:24.079Z,18.19
2022-08-09T07:35:53.397Z,18.32
2022-08-09T07:38:23.432Z,18.37
2022-08-09T07:41:00.885Z,18.40
2022-08-09T07:43:41.478Z,18.69
2022-08-09T07:46:19.267Z,18.61
2022-08-09T07:48:52.792Z,18.64
2022-08-09T07:52:03.338Z,18.80
2022-08-09T07:54:19.251Z,19.08
2022-08-09T07:56:55.891Z,18.90
2022-08-09T07:59:33.842Z,19.11
2022-08-09T08:02:11.179Z,19.61
2022-08-09T08:04:48.618Z,19.71
2022-08-09T08:08:43.723Z,19.31
2022-08-09T08:10:08.690Z,19.60
2022-08-09T08:12:45.620Z,19.63
2022-08-09T08:15:17.597Z,19.53
2022-08-09T08:17:52.829Z,19.72
2022-08-09T08:20:29.574Z,19.99
2022-08-09T08:23:03.748Z,20.07
2022-08-09T08:25:48.105Z,20.26
2022-08-09T08:28:18.393Z,20.19
2022-08-09T08:31:03.473Z,20.57
2022-08-09T08:33:40.712Z,20.44
2022-08-09T08:36:28.375Z,20.48
2022-08-09T08:38:57.468Z,20.60
2022-08-09T08:41:41.778Z,20.87
2022-08-09T08:44:14.411Z,21.01
2022-08-09T08:47:03.249Z,21.46
2022-08-09T08:49:46.793Z,20.91
2022-08-09T08:55:05.648Z,21.42
2022-08-09T08:57:35.401Z,21.59
2022-08-09T09:00:12.842Z,22.79
2022-08-09T09:02:52.486Z,23.07
2022-08-09T09:05:33.043Z,22.75
2022-08-09T09:08:30.320Z,22.36
2022-08-09T09:11:03.363Z,22.88
2022-08-09T09:13:55.847Z,23.60
2022-08-09T09:16:35.596Z,23.58
2022-08-09T09:22:02.608Z,23.44
2022-08-09T09:24:37.904Z,23.78
2022-08-09T09:27:08.501Z,23.54
2022-08-09T09:32:34.346Z,23.44
2022-08-09T09:35:15.682Z,23.15
2022-08-09T09:37:47.031Z,22.96
2022-08-09T09:40:15.152Z,23.29
2022-08-09T09:42:56.553Z,23.40
2022-08-09T09:45:26.863Z,23.33
2022-08-09T09:47:58.538Z,22.93
2022-08-09T09:50:51.039Z,23.88
2022-08-09T09:53:43.664Z,23.59
2022-08-09T09:56:31.017Z,23.74
2022-08-09T09:58:57.986Z,24.15
2022-08-09T10:01:31.352Z,24.15
2022-08-09T10:04:13.465Z,24.11
2022-08-09T10:06:51.914Z,24.07
2022-08-09T10:09:24.037Z,23.83
2022-08-09T10:12:15.023Z,24.27
2022-08-09T10:14:51.531Z,24.48
2022-08-09T10:17:50.653Z,24.31
2022-08-09T10:20:31.871Z,24.35
2022-08-09T10:23:13.642Z,24.14
2022-08-09T10:26:07.839Z,24.15
2022-08-09T10:28:35.549Z,24.92
2022-08-09T10:34:10.127Z,24.47
2022-08-09T10:36:42.286Z,24.55
2022-08-09T10:39:15.723Z,24.85
2022-08-09T10:41:45.874Z,25.27
2022-08-09T10:44:18.796Z,26.00
2022-08-09T10:48:12.499Z,25.99
2022-08-09T10:50:46.947Z,26.45
2022-08-09T10:53:39.722Z,25.17
2022-08-09T10:56:23.698Z,25.64
2022-08-09T10:58:55.535Z,24.91
2022-08-09T11:03:15.528Z,26.47
2022-08-09T11:04:31.691Z,26.92
2022-08-09T11:07:01.033Z,26.36
2022-08-09T11:09:47.917Z,26.01
2022-08-09T11:12:30.345Z,26.14
2022-08-09T11:15:23.932Z,27.36
2022-08-09T11:17:56.841Z,26.45
2022-08-09T11:20:43.287Z,25.71
2022-08-09T11:23:11.735Z,25.43
2022-08-09T11:25:47.490Z,25.50
2022-08-09T11:28:55.742Z,26.67
2022-08-09T11:31:49.949Z,26.04
2022-08-09T11:34:30.926Z,26.77
2022-08-09T11:37:00.145Z,26.04
2022-08-09T11:39:38.154Z,26.83
2022-08-09T11:42:14.588Z,26.83
2022-08-09T11:44:48.341Z,26.97
2022-08-09T11:47:16.464Z,26.75
2022-08-09T11:50:54.792Z,26.85
2022-08-09T11:53:28.256Z,27.58
2022-08-09T11:56:02.611Z,27.07
2022-08-09T11:58:33.631Z,27.03
2022-08-09T12:01:08.931Z,28.35
2022-08-09T12:03:57.103Z,27.61
2022-08-09T12:06:32.459Z,26.74
2022-08-09T12:09:06.608Z,26.90
2022-08-09T12:12:03.175Z,26.45
2022-08-09T12:14:41.017Z,27.76
2022-08-09T12:17:27.974Z,28.13
2022-08-09T12:20:22.430Z,27.69
2022-08-09T12:23:02.940Z,26.63
2022-08-09T12:25:37.382Z,27.48
2022-08-09T12:29:15.215Z,27.96
2022-08-09T12:31:57.991Z,28.48
2022-08-09T12:34:14.919Z,28.63
2022-08-09T12:36:59.068Z,27.02
2022-08-09T12:39:44.034Z,28.51
2022-08-09T12:42:16.371Z,29.27
2022-08-09T12:44:52.443Z,28.45
2022-08-09T12:47:23.311Z,28.51
2022-08-09T12:50:05.481Z,29.22
2022-08-09T12:53:17.684Z,28.79
2022-08-09T12:56:12.013Z,28.14
2022-08-09T12:58:28.035Z,28.52
2022-08-09T13:00:57.497Z,27.77
2022-08-09T13:03:53.257Z,28.37
2022-08-09T13:06:42.701Z,27.55
2022-08-09T13:09:14.422Z,28.39
2022-08-09T13:11:47.714Z,29.15
2022-08-09T13:14:42.562Z,28.79
2022-08-09T13:17:43.894Z,28.92
2022-08-09T13:20:14.005Z,29.36
2022-08-09T13:23:01.586Z,28.81
2022-08-09T13:25:42.759Z,28.62
2022-08-09T13:28:18.947Z,27.71
2022-08-09T13:32:14.373Z,27.65
2022-08-09T13:33:55.327Z,29.37
2022-08-09T13:36:41.158Z,28.63
2022-08-09T13:41:46.013Z,28.58
2022-08-09T13:42:14.133Z,29.46
2022-08-09T13:44:45.683Z,28.81
2022-08-09T13:47:29.676Z,29.47
2022-08-09T13:50:08.727Z,29.76
2022-08-09T13:52:41.733Z,28.40
2022-08-09T13:55:13.458Z,29.22
2022-08-09T13:57:46.932Z,29.63
2022-08-09T14:00:28.610Z,28.80
2022-08-09T14:03:04.146Z,28.39
2022-08-09T14:05:58.993Z,27.60
2022-08-09T14:08:31.804Z,28.77
2022-08-09T14:11:01.170Z,27.96
2022-08-09T14:14:23.241Z,27.55
2022-08-09T14:16:20.128Z,26.73
2022-08-09T14:18:57.204Z,27.46
2022-08-09T14:21:29.330Z,26.87
2022-08-09T14:24:01.022Z,26.53
2022-08-09T14:26:34.172Z,26.19
2022-08-09T14:29:07.729Z,25.79
2022-08-09T14:31:53.980Z,25.81
2022-08-09T14:34:31.281Z,25.92
2022-08-09T14:37:06.134Z,25.74
2022-08-09T14:39:47.254Z,25.73
2022-08-09T14:42:30.098Z,25.29
2022-08-09T14:46:53.898Z,25.39
2022-08-09T14:53:11.252Z,25.32
2022-08-09T14:55:32.626Z,25.32
2022-08-09T14:58:43.781Z,25.35
2022-08-09T15:02:09.035Z,25.07
2022-08-09T15:11:43.356Z,25.17
2022-08-09T15:15:22.614Z,24.59
2022-08-09T15:19:02.603Z,24.76
2022-08-09T15:31:44.789Z,24.85
2022-08-09T15:34:54.956Z,24.64
2022-08-09T15:41:31.774Z,24.60
2022-08-09T15:46:28.151Z,24.85
2022-08-09T16:24:42.267Z,24.08
2022-08-09T16:27:09.928Z,24.07
2022-08-09T16:29:50.485Z,24.18
2022-08-09T16:32:33.877Z,24.34
2022-08-09T16:35:02.432Z,24.31
2022-08-09T16:40:39.847Z,24.30
2022-08-09T16:43:09.056Z,24.14
2022-08-09T16:45:43.870Z,24.04
2022-08-09T16:48:38.343Z,23.95
2022-08-09T16:51:07.559Z,24.03
2022-08-09T16:53:36.965Z,23.97
2022-08-09T16:56:10.471Z,24.11
2022-08-09T16:58:49.711Z,23.98
2022-08-09T17:01:19.334Z,24.05
2022-08-09T17:03:51.420Z,24.01
2022-08-09T17:06:31.183Z,24.08
2022-08-09T17:09:17.867Z,23.90
2022-08-09T17:11:51.398Z,23.91
2022-08-09T17:14:28.090Z,23.82
2022-08-09T17:17:01.454Z,23.97
2022-08-09T17:19:47.164Z,23.77
2022-08-09T17:22:24.074Z,23.67
2022-08-09T17:25:03.230Z,23.51
2022-08-09T17:27:33.873Z,23.53
2022-08-09T17:30:04.871Z,23.40
2022-08-09T17:32:38.105Z,23.37
2022-08-09T17:35:12.239Z,23.16
2022-08-09T17:38:10.181Z,23.18
2022-08-09T17:40:33.204Z,23.11
2022-08-09T17:43:32.412Z,23.26
2022-08-09T17:46:03.463Z,23.21
2022-08-09T17:48:38.564Z,23.11
2022-08-09T17:51:17.108Z,22.93
2022-08-09T17:53:48.125Z,22.98
2022-08-09T17:56:27.068Z,22.95
2022-08-09T17:58:57.643Z,22.96
2022-08-09T18:01:25.397Z,22.87
2022-08-09T18:04:08.997Z,22.90
2022-08-09T18:06:36.920Z,22.83
2022-08-09T18:09:07.899Z,22.92
2022-08-09T18:12:05.559Z,22.87
2022-08-09T18:14:25.087Z,22.86
2022-08-09T18:16:53.271Z,22.86
2022-08-09T18:20:55.678Z,22.62
2022-08-09T18:22:13.167Z,22.50
2022-08-09T18:24:44.140Z,22.51
2022-08-09T18:27:14.121Z,22.50
2022-08-09T18:30:37.726Z,22.47
2022-08-09T18:32:54.477Z,22.40
2022-08-09T18:35:58.598Z,22.38
2022-08-09T18:38:11.802Z,22.26
2022-08-09T18:40:40.537Z,22.15
2022-08-09T18:43:08.634Z,22.09
2022-08-09T18:46:47.764Z,22.14
2022-08-09T18:48:30.062Z,22.06
2022-08-09T18:50:57.999Z,22.03
2022-08-09T18:53:26.037Z,21.95
2022-08-09T18:56:07.671Z,21.96
2022-08-09T18:58:36.592Z,21.89
2022-08-09T19:01:09.237Z,21.79
2022-08-09T19:03:54.659Z,21.71
2022-08-09T19:06:25.021Z,21.68
2022-08-09T19:09:02.694Z,21.67
2022-08-09T19:11:35.414Z,21.60
2022-08-09T19:14:08.168Z,21.53
2022-08-09T19:16:37.987Z,21.44
2022-08-09T19:19:25.685Z,21.42
2022-08-09T19:22:06.789Z,21.42
2022-08-09T19:25:09.171Z,21.35
2022-08-09T19:27:25.938Z,21.21
2022-08-09T19:30:23.040Z,21.16
2022-08-09T19:32:45.187Z,21.10
2022-08-09T19:35:12.694Z,21.05
2022-08-09T19:37:56.386Z,21.02
2022-08-09T19:40:34.117Z,20.96
2022-08-09T19:43:03.876Z,20.81
2022-08-09T19:45:39.152Z,20.81
2022-08-09T19:48:09.509Z,20.81
2022-08-09T19:50:50.205Z,20.70
2022-08-09T19:53:20.681Z,20.64
2022-08-09T19:56:03.186Z,20.49
2022-08-09T19:58:33.953Z,20.47
2022-08-09T20:01:01.765Z,20.39
2022-08-09T20:04:25.175Z,20.37
2022-08-09T20:06:23.853Z,20.36
2022-08-09T20:08:59.277Z,20.32
2022-08-09T20:11:43.008Z,20.27
2022-08-09T20:14:16.591Z,20.19
2022-08-09T20:16:53.751Z,20.13
2022-08-09T20:19:48.176Z,20.11
2022-08-09T20:22:10.246Z,20.06
2022-08-09T20:24:42.291Z,19.98
2022-08-09T20:27:11.496Z,19.92
2022-08-09T20:29:40.305Z,19.86
2022-08-09T20:32:31.080Z,19.82
2022-08-09T20:35:01.650Z,19.76
2022-08-09T20:37:37.871Z,19.71
2022-08-09T20:40:24.851Z,19.70
2022-08-09T20:42:59.809Z,19.60
2022-08-09T20:46:00.316Z,19.56
2022-08-09T20:48:21.242Z,19.50
2022-08-09T20:50:54.289Z,19.43
2022-08-09T20:53:37.625Z,19.37
2022-08-09T20:56:20.443Z,19.34
2022-08-09T20:58:54.525Z,19.32
2022-08-09T21:01:34.794Z,19.18
2022-08-09T21:05:57.571Z,19.15
2022-08-09T21:07:12.376Z,19.14
2022-08-09T21:09:56.701Z,19.06
2022-08-09T21:12:32.152Z,19.03
2022-08-09T21:15:00.023Z,19.02
2022-08-09T21:18:21.577Z,18.94
2022-08-09T21:20:22.342Z,18.77
2022-08-09T21:22:54.147Z,18.75
2022-08-09T21:25:44.047Z,18.77
2022-08-09T21:28:34.267Z,18.76
2022-08-09T21:31:16.269Z,18.75
2022-08-09T21:33:44.552Z,18.69
2022-08-09T21:36:12.843Z,18.65
2022-08-09T21:38:40.549Z,18.62
2022-08-09T21:41:08.402Z,18.53
2022-08-09T21:43:56.191Z,18.53
2022-08-09T21:46:24.246Z,18.52
2022-08-09T21:48:53.672Z,18.49
2022-08-09T21:51:35.692Z,18.39
2022-08-09T21:54:03.846Z,18.38
2022-08-09T21:56:43.081Z,18.35
2022-08-09T21:59:16.231Z,18.30
2022-08-09T22:02:00.735Z,18.19
2022-08-09T22:04:55.143Z,18.16
2022-08-09T22:07:23.411Z,18.12
2022-08-09T22:10:06.973Z,18.09
2022-08-09T22:12:35.570Z,18.07
2022-08-09T22:15:07.225Z,18.02
2022-08-09T22:17:46.243Z,17.94
2022-08-09T22:20:16.890Z,17.92
2022-08-09T22:22:49.405Z,17.85
2022-08-09T22:26:08.310Z,17.76
2022-08-09T22:28:07.272Z,17.72
2022-08-09T22:30:35.205Z,17.65
2022-08-09T22:33:09.713Z,17.60
2022-08-09T22:36:03.353Z,17.59
2022-08-09T22:40:57.358Z,17.42
2022-08-09T22:44:01.846Z,17.37
2022-08-09T22:48:14.809Z,17.30
2022-08-09T22:49:09.741Z,17.25
2022-08-09T22:51:43.314Z,17.22
2022-08-09T22:54:21.214Z,17.21
2022-08-09T22:56:50.898Z,17.09
2022-08-09T22:59:56.857Z,17.09
2022-08-09T23:02:15.741Z,17.03
2022-08-09T23:04:54.035Z,17.04
2022-08-09T23:08:21.944Z,16.95
2022-08-09T23:10:27.583Z,16.84
2022-08-09T23:12:55.141Z,16.82
2022-08-09T23:15:22.731Z,16.83
2022-08-09T23:17:50.223Z,16.74
2022-08-09T23:20:17.845Z,16.74
2022-08-09T23:22:45.339Z,16.73
2022-08-09T23:25:12.850Z,16.74
2022-08-09T23:28:15.808Z,16.68
2022-08-09T23:30:27.882Z,16.70
2022-08-09T23:32:55.509Z,16.68
2022-08-09T23:35:23.238Z,16.65
2022-08-09T23:37:50.830Z,16.64
2022-08-09T23:40:18.347Z,16.63
2022-08-09T23:42:45.883Z,16.63
2022-08-09T23:45:37.463Z,16.61
2022-08-09T23:48:04.274Z,16.60
2022-08-09T23:50:35.786Z,16.52
2022-08-09T23:53:03.372Z,16.50
2022-08-09T23:55:31.090Z,16.52
2022-08-09T23:58:10.651Z,16.51
